createdAt,value
2023-04-25T00:00:37.050Z,100.00
2023-04-25T00:03:07.011Z,100.00
2023-04-25T00:05:38.374Z,100.00
2023-04-25T00:08:08.922Z,100.00
2023-04-25T00:10:38.753Z,100.00
2023-04-25T00:13:09.325Z,100.00
2023-04-25T00:15:39.907Z,100.00
2023-04-25T00:18:10.158Z,100.00
2023-04-25T00:20:40.242Z,100.00
2023-04-25T00:23:09.986Z,100.00
2023-04-25T00:25:39.859Z,100.00
2023-04-25T00:28:09.572Z,100.00
2023-04-25T00:30:42.029Z,100.00
2023-04-25T00:33:11.639Z,100.00
2023-04-25T00:35:41.971Z,100.00
2023-04-25T00:38:11.597Z,100.00
2023-04-25T00:40:41.338Z,100.00
2023-04-25T00:43:11.025Z,100.00
2023-04-25T00:45:41.925Z,100.00
2023-04-25T00:48:15.420Z,100.00
2023-04-25T00:50:54.402Z,100.00
2023-04-25T00:53:29.612Z,100.00
2023-04-25T00:56:00.466Z,100.00
2023-04-25T00:58:31.192Z,100.00
2023-04-25T01:01:02.630Z,100.00
2023-04-25T01:03:42.108Z,100.00
2023-04-25T01:06:12.888Z,100.00
2023-04-25T01:08:41.454Z,100.00
2023-04-25T01:11:09.519Z,100.00
2023-04-25T01:13:37.845Z,100.00
2023-04-25T01:16:06.852Z,100.00
2023-04-25T01:18:34.595Z,100.00
2023-04-25T01:21:14.401Z,100.00
2023-04-25T01:23:44.736Z,100.00
2023-04-25T01:26:15.215Z,100.00
2023-04-25T01:28:46.540Z,100.00
2023-04-25T01:31:18.417Z,100.00
2023-04-25T01:33:49.980Z,100.00
2023-04-25T01:36:22.111Z,100.00
2023-04-25T01:38:52.367Z,100.00
2023-04-25T01:41:24.401Z,100.00
2023-04-25T01:43:55.305Z,100.00
2023-04-25T01:46:26.212Z,100.00
2023-04-25T01:48:56.464Z,100.00
2023-04-25T01:51:26.860Z,100.00
2023-04-25T01:54:00.475Z,100.00
2023-04-25T01:56:33.592Z,100.00
2023-04-25T01:59:06.725Z,100.00
2023-04-25T02:01:36.917Z,100.00
2023-04-25T02:04:07.150Z,100.00
2023-04-25T02:06:37.348Z,100.00
2023-04-25T02:09:07.440Z,100.00
2023-04-25T02:11:37.577Z,100.00
2023-04-25T02:14:07.719Z,100.00
2023-04-25T02:16:38.442Z,100.00
2023-04-25T02:19:08.703Z,100.00
2023-04-25T02:21:38.829Z,100.00
2023-04-25T02:24:09.535Z,100.00
2023-04-25T02:26:39.334Z,100.00
2023-04-25T02:29:10.804Z,100.00
2023-04-25T02:31:40.216Z,100.00
2023-04-25T02:34:10.398Z,100.00
2023-04-25T02:36:40.775Z,100.00
2023-04-25T02:39:11.651Z,100.00
2023-04-25T02:41:41.165Z,100.00
2023-04-25T02:44:11.394Z,100.00
2023-04-25T02:46:41.645Z,100.00
2023-04-25T02:49:11.670Z,100.00
2023-04-25T02:51:41.804Z,100.00
2023-04-25T02:54:12.019Z,100.00
2023-04-25T02:56:42.178Z,100.00
2023-04-25T02:59:12.300Z,100.00
2023-04-25T03:01:42.469Z,100.00
2023-04-25T03:04:12.609Z,100.00
2023-04-25T03:06:42.747Z,100.00
2023-04-25T03:09:12.898Z,100.00
2023-04-25T03:11:46.029Z,100.00
2023-04-25T03:14:14.851Z,100.00
2023-04-25T03:16:43.900Z,100.00
2023-04-25T03:19:17.067Z,100.00
2023-04-25T03:21:46.522Z,100.00
2023-04-25T03:24:16.707Z,100.00
2023-04-25T03:26:46.824Z,100.00
2023-04-25T03:29:16.921Z,100.00
2023-04-25T03:31:47.044Z,100.00
2023-04-25T03:34:17.215Z,100.00
2023-04-25T03:36:47.322Z,100.00
2023-04-25T03:39:17.419Z,100.00
2023-04-25T03:41:47.639Z,100.00
2023-04-25T03:44:17.744Z,100.00
2023-04-25T03:46:47.829Z,100.00
2023-04-25T03:49:19.372Z,100.00
2023-04-25T03:51:48.170Z,100.00
2023-04-25T03:54:16.576Z,100.00
2023-04-25T03:56:45.067Z,100.00
2023-04-25T03:59:13.433Z,100.00
2023-04-25T04:01:41.839Z,100.00
2023-04-25T04:04:10.492Z,100.00
2023-04-25T04:06:39.057Z,100.00
2023-04-25T04:09:11.062Z,100.00
2023-04-25T04:11:40.675Z,100.00
2023-04-25T04:14:11.458Z,100.00
2023-04-25T04:16:41.689Z,100.00
2023-04-25T04:19:12.126Z,100.00
2023-04-25T04:21:42.262Z,100.00
2023-04-25T04:24:12.476Z,100.00
2023-04-25T04:26:45.945Z,100.00
2023-04-25T04:29:21.935Z,100.00
2023-04-25T04:31:54.193Z,100.00
2023-04-25T04:34:25.947Z,100.00
2023-04-25T04:36:56.257Z,100.00
2023-04-25T04:39:26.374Z,100.00
2023-04-25T04:41:56.526Z,100.00
2023-04-25T04:44:27.048Z,100.00
2023-04-25T04:46:57.855Z,100.00
2023-04-25T04:49:28.170Z,100.00
2023-04-25T04:51:59.780Z,100.00
2023-04-25T04:54:29.709Z,100.00
2023-04-25T04:56:58.293Z,100.00
2023-04-25T04:59:26.690Z,100.00
2023-04-25T05:01:55.250Z,100.00
2023-04-25T05:04:25.328Z,100.00
2023-04-25T05:06:55.595Z,100.00
2023-04-25T05:09:26.982Z,100.00
2023-04-25T05:11:57.174Z,100.00
2023-04-25T05:14:27.379Z,100.00
2023-04-25T05:16:57.671Z,100.00
2023-04-25T05:19:27.823Z,100.00
2023-04-25T05:21:58.050Z,100.00
2023-04-25T05:24:28.158Z,100.00
2023-04-25T05:26:58.960Z,100.00
2023-04-25T05:29:29.088Z,100.00
2023-04-25T05:31:59.292Z,100.00
2023-04-25T05:34:29.622Z,100.00
2023-04-25T05:36:59.827Z,100.00
2023-04-25T05:39:30.786Z,100.00
2023-04-25T05:42:02.600Z,100.00
2023-04-25T05:44:32.952Z,100.00
2023-04-25T05:47:03.149Z,100.00
2023-04-25T05:49:33.361Z,100.00
2023-04-25T05:52:03.564Z,100.00
2023-04-25T05:54:33.759Z,100.00
2023-04-25T05:57:04.331Z,100.00
2023-04-25T05:59:34.772Z,100.00
2023-04-25T06:02:04.909Z,100.00
2023-04-25T06:04:35.311Z,100.00
2023-04-25T06:07:05.950Z,100.00
2023-04-25T06:09:36.414Z,100.00
2023-04-25T06:12:12.038Z,100.00
2023-04-25T06:14:42.853Z,100.00
2023-04-25T06:17:13.019Z,100.00
2023-04-25T06:19:43.161Z,100.00
2023-04-25T06:22:13.373Z,100.00
2023-04-25T06:24:43.551Z,100.00
2023-04-25T06:27:16.433Z,100.00
2023-04-25T06:29:47.241Z,100.00
2023-04-25T06:32:19.215Z,100.00
2023-04-25T06:34:49.364Z,100.00
2023-04-25T06:37:19.560Z,100.00
2023-04-25T06:39:49.699Z,100.00
2023-04-25T06:42:19.912Z,100.00
2023-04-25T06:44:50.205Z,100.00
2023-04-25T06:47:20.762Z,100.00
2023-04-25T06:49:48.791Z,100.00
2023-04-25T06:52:19.141Z,100.00
2023-04-25T06:54:48.667Z,100.00
2023-04-25T06:57:17.091Z,100.00
2023-04-25T06:59:45.691Z,100.00
2023-04-25T07:02:14.047Z,100.00
2023-04-25T07:04:42.467Z,100.00
2023-04-25T07:07:10.758Z,100.00
2023-04-25T07:09:39.247Z,100.00
2023-04-25T07:12:11.379Z,100.00
2023-04-25T07:14:41.814Z,100.00
2023-04-25T07:17:12.406Z,100.00
2023-04-25T07:19:43.138Z,100.00
2023-04-25T07:22:13.523Z,100.00
2023-04-25T07:24:43.709Z,100.00
2023-04-25T07:27:13.860Z,100.00
2023-04-25T07:29:44.045Z,100.00
2023-04-25T07:32:15.269Z,100.00
2023-04-25T07:34:45.703Z,100.00
2023-04-25T07:37:16.456Z,100.00
2023-04-25T07:39:47.982Z,100.00
2023-04-25T07:42:18.261Z,100.00
2023-04-25T07:44:48.503Z,100.00
2023-04-25T07:47:20.437Z,100.00
2023-04-25T07:49:50.788Z,100.00
2023-04-25T07:52:21.850Z,100.00
2023-04-25T07:54:52.310Z,100.00
2023-04-25T07:57:22.602Z,100.00
2023-04-25T07:59:53.406Z,100.00
2023-04-25T08:02:21.288Z,100.00
2023-04-25T08:04:51.022Z,100.00
2023-04-25T08:07:21.142Z,100.00
2023-04-25T08:09:49.574Z,100.00
2023-04-25T08:12:18.114Z,100.00
2023-04-25T08:14:46.545Z,100.00
2023-04-25T08:17:15.052Z,100.00
2023-04-25T08:19:43.570Z,100.00
2023-04-25T08:22:12.164Z,100.00
2023-04-25T08:24:40.393Z,100.00
2023-04-25T08:27:09.040Z,100.00
2023-04-25T08:29:37.244Z,100.00
2023-04-25T08:32:05.977Z,100.00
2023-04-25T08:34:34.178Z,100.00
2023-04-25T08:37:02.757Z,100.00
2023-04-25T08:39:34.011Z,100.00
2023-04-25T08:42:14.124Z,100.00
2023-04-25T08:44:43.491Z,100.00
2023-04-25T08:47:11.904Z,100.00
2023-04-25T08:49:48.155Z,97.00
2023-04-25T08:52:25.572Z,89.86
2023-04-25T08:54:58.358Z,88.90
2023-04-25T08:57:32.002Z,83.13
2023-04-25T09:00:04.851Z,76.76
2023-04-25T09:02:36.881Z,75.95
2023-04-25T09:05:05.945Z,74.00
2023-04-25T09:07:35.578Z,72.23
2023-04-25T09:10:06.055Z,74.79
2023-04-25T09:12:37.630Z,73.87
2023-04-25T09:15:20.561Z,76.56
2023-04-25T09:17:58.776Z,76.57
2023-04-25T09:20:31.476Z,73.56
2023-04-25T09:23:08.281Z,72.75
2023-04-25T09:25:44.493Z,68.16
2023-04-25T09:28:12.614Z,64.31
2023-04-25T09:30:41.159Z,62.04
2023-04-25T09:33:13.785Z,60.90
2023-04-25T09:35:46.345Z,61.60
2023-04-25T09:38:19.404Z,61.98
2023-04-25T09:40:52.936Z,62.33
2023-04-25T09:43:26.464Z,63.38
2023-04-25T09:46:00.150Z,60.30
2023-04-25T09:48:30.848Z,62.03
2023-04-25T09:51:17.265Z,62.78
2023-04-25T09:53:52.369Z,64.23
2023-04-25T09:56:27.051Z,63.61
2023-04-25T09:58:57.807Z,64.25
2023-04-25T10:01:28.942Z,63.48
2023-04-25T10:04:00.409Z,64.47
2023-04-25T10:06:35.850Z,69.42
2023-04-25T10:09:08.866Z,65.84
2023-04-25T10:11:41.136Z,63.82
2023-04-25T10:14:10.964Z,61.61
2023-04-25T10:16:43.993Z,61.88
2023-04-25T10:19:12.309Z,64.07
2023-04-25T10:21:59.412Z,63.91
2023-04-25T10:24:29.840Z,62.38
2023-04-25T10:27:00.793Z,61.76
2023-04-25T10:29:30.804Z,63.36
2023-04-25T10:32:00.711Z,64.48
2023-04-25T10:34:49.717Z,61.99
2023-04-25T10:37:20.614Z,61.58
2023-04-25T10:39:48.283Z,62.46
2023-04-25T10:42:17.168Z,58.32
2023-04-25T10:45:06.841Z,58.79
2023-04-25T10:47:44.326Z,58.17
2023-04-25T10:50:17.649Z,55.16
2023-04-25T10:52:47.792Z,55.44
2023-04-25T10:55:17.952Z,58.62
2023-04-25T10:57:50.897Z,57.54
2023-04-25T11:00:38.394Z,58.23
2023-04-25T11:03:18.315Z,57.48
2023-04-25T11:05:58.312Z,57.86
2023-04-25T11:08:52.900Z,55.16
2023-04-25T11:11:23.412Z,57.63
2023-04-25T11:13:53.691Z,57.55
2023-04-25T11:19:16.820Z,55.72
2023-04-25T11:21:47.195Z,56.01
2023-04-25T11:24:17.443Z,57.64
2023-04-25T11:26:51.769Z,56.56
2023-04-25T11:29:31.652Z,58.39
2023-04-25T11:32:03.487Z,58.08
2023-04-25T11:34:35.913Z,59.87
2023-04-25T11:37:07.338Z,59.95
2023-04-25T11:39:37.532Z,60.28
2023-04-25T11:42:14.201Z,62.70
2023-04-25T11:44:45.663Z,63.11
2023-04-25T11:47:15.811Z,60.31
2023-04-25T11:49:45.952Z,59.67
2023-04-25T11:52:16.351Z,59.21
2023-04-25T11:54:46.003Z,55.76
2023-04-25T11:57:16.325Z,56.56
2023-04-25T11:59:46.191Z,56.13
2023-04-25T12:02:27.885Z,55.29
2023-04-25T12:05:16.068Z,55.38
2023-04-25T12:07:51.564Z,55.01
2023-04-25T12:10:22.659Z,54.51
2023-04-25T12:12:52.816Z,53.62
2023-04-25T12:15:27.384Z,54.74
2023-04-25T12:17:57.529Z,55.72
2023-04-25T12:20:27.768Z,55.15
2023-04-25T12:22:58.859Z,56.92
2023-04-25T12:25:40.652Z,55.67
2023-04-25T12:28:28.735Z,54.27
2023-04-25T12:31:05.660Z,55.25
2023-04-25T12:33:39.149Z,55.54
2023-04-25T12:36:09.988Z,52.91
2023-04-25T12:38:43.845Z,52.18
2023-04-25T12:41:13.995Z,51.17
2023-04-25T12:43:43.971Z,52.54
2023-04-25T12:46:13.845Z,51.84
2023-04-25T12:48:43.921Z,50.62
2023-04-25T12:51:13.771Z,47.80
2023-04-25T12:53:43.672Z,48.38
2023-04-25T12:56:13.725Z,49.12
2023-04-25T12:58:45.340Z,50.06
2023-04-25T13:01:16.290Z,51.71
2023-04-25T13:03:46.398Z,52.42
2023-04-25T13:06:19.076Z,54.23
2023-04-25T13:08:48.421Z,54.22
2023-04-25T13:11:18.223Z,54.04
2023-04-25T13:13:47.912Z,54.39
2023-04-25T13:16:18.062Z,52.01
2023-04-25T13:18:46.138Z,53.63
2023-04-25T13:21:14.564Z,52.77
2023-04-25T13:23:47.794Z,53.30
2023-04-25T13:26:18.053Z,53.14
2023-04-25T13:28:48.304Z,52.73
2023-04-25T13:31:18.453Z,53.70
2023-04-25T13:33:48.761Z,51.07
2023-04-25T13:36:19.091Z,48.70
2023-04-25T13:38:50.457Z,48.13
2023-04-25T13:41:20.685Z,48.26
2023-04-25T13:43:51.130Z,50.65
2023-04-25T13:46:40.826Z,48.73
2023-04-25T13:49:13.240Z,49.89
2023-04-25T13:51:43.880Z,50.14
2023-04-25T13:54:13.911Z,50.35
2023-04-25T13:56:44.112Z,51.69
2023-04-25T13:59:14.219Z,49.47
2023-04-25T14:01:44.103Z,51.35
2023-04-25T14:04:14.260Z,53.66
2023-04-25T14:06:44.986Z,52.00
2023-04-25T14:09:14.503Z,52.84
2023-04-25T14:11:44.863Z,54.99
2023-04-25T14:14:17.288Z,54.83
2023-04-25T14:16:49.367Z,57.42
2023-04-25T14:19:21.999Z,56.09
2023-04-25T14:21:52.115Z,56.96
2023-04-25T14:24:21.769Z,58.90
2023-04-25T14:26:51.952Z,58.51
2023-04-25T14:29:22.733Z,60.49
2023-04-25T14:31:52.416Z,60.84
2023-04-25T14:34:19.701Z,60.54
2023-04-25T14:36:49.868Z,62.85
2023-04-25T14:39:20.438Z,60.93
2023-04-25T14:41:50.577Z,61.25
2023-04-25T14:44:20.708Z,63.30
2023-04-25T14:46:52.863Z,61.56
2023-04-25T14:49:22.290Z,61.72
2023-04-25T14:51:52.654Z,62.21
2023-04-25T14:54:22.785Z,62.27
2023-04-25T14:56:51.386Z,64.00
2023-04-25T14:59:20.893Z,61.34
2023-04-25T15:01:48.375Z,58.38
2023-04-25T15:04:18.658Z,58.90
2023-04-25T15:06:47.952Z,59.81
2023-04-25T15:09:19.249Z,62.11
2023-04-25T15:11:49.652Z,60.62
2023-04-25T15:14:19.763Z,59.59
2023-04-25T15:16:49.905Z,60.36
2023-04-25T15:19:20.012Z,60.75
2023-04-25T15:21:50.413Z,61.33
2023-04-25T15:24:21.014Z,63.08
2023-04-25T15:26:51.753Z,64.29
2023-04-25T15:29:22.672Z,66.23
2023-04-25T15:31:53.124Z,64.17
2023-04-25T15:34:23.239Z,63.38
2023-04-25T15:36:54.377Z,66.24
2023-04-25T15:39:24.634Z,65.64
2023-04-25T15:41:54.766Z,65.86
2023-04-25T15:44:25.935Z,63.90
2023-04-25T15:46:56.719Z,64.50
2023-04-25T15:49:26.936Z,62.03
2023-04-25T15:51:57.510Z,60.99
2023-04-25T15:54:28.001Z,60.75
2023-04-25T15:56:58.098Z,60.84
2023-04-25T15:59:28.220Z,62.34
2023-04-25T16:01:59.395Z,62.35
2023-04-25T16:04:31.064Z,64.77
2023-04-25T16:06:58.505Z,63.68
2023-04-25T16:09:26.968Z,63.56
2023-04-25T16:11:56.015Z,64.96
2023-04-25T16:14:24.094Z,61.85
2023-04-25T16:16:52.377Z,63.52
2023-04-25T16:19:21.354Z,63.51
2023-04-25T16:21:49.648Z,63.74
2023-04-25T16:24:17.823Z,63.07
2023-04-25T16:26:46.051Z,63.86
2023-04-25T16:29:16.970Z,64.10
2023-04-25T16:31:47.688Z,65.03
2023-04-25T16:34:17.831Z,66.43
2023-04-25T16:36:47.986Z,67.39
2023-04-25T16:39:18.243Z,65.43
2023-04-25T16:41:49.144Z,69.20
2023-04-25T16:44:19.314Z,66.96
2023-04-25T16:46:49.607Z,69.39
2023-04-25T16:49:19.767Z,69.77
2023-04-25T16:51:49.929Z,71.19
2023-04-25T16:54:20.069Z,71.23
2023-04-25T16:56:50.177Z,73.08
2023-04-25T16:59:20.975Z,72.40
2023-04-25T17:01:51.308Z,72.95
2023-04-25T17:04:21.536Z,73.93
2023-04-25T17:06:51.807Z,75.69
2023-04-25T17:09:20.139Z,76.38
2023-04-25T17:11:49.057Z,74.22
2023-04-25T17:14:17.011Z,73.23
2023-04-25T17:16:45.520Z,70.46
2023-04-25T17:19:13.823Z,70.09
2023-04-25T17:21:42.447Z,71.74
2023-04-25T17:24:12.071Z,71.18
2023-04-25T17:26:42.165Z,69.63
2023-04-25T17:29:10.822Z,68.20
2023-04-25T17:31:39.405Z,69.00
2023-04-25T17:34:08.835Z,69.96
2023-04-25T17:36:39.040Z,66.79
2023-04-25T17:39:11.144Z,66.55
2023-04-25T17:41:41.308Z,68.37
2023-04-25T17:44:11.644Z,69.16
2023-04-25T17:46:41.785Z,70.72
2023-04-25T17:49:11.974Z,71.82
2023-04-25T17:51:42.360Z,72.81
2023-04-25T17:54:12.568Z,73.09
2023-04-25T17:56:44.281Z,74.59
2023-04-25T17:59:15.081Z,74.31
2023-04-25T18:01:47.932Z,76.71
2023-04-25T18:04:18.908Z,77.63
2023-04-25T18:06:48.985Z,77.99
2023-04-25T18:09:23.408Z,78.60
2023-04-25T18:11:54.604Z,80.22
2023-04-25T18:14:25.544Z,81.28
2023-04-25T18:16:56.133Z,80.82
2023-04-25T18:19:26.299Z,81.17
2023-04-25T18:21:56.932Z,81.46
2023-04-25T18:24:28.494Z,82.47
2023-04-25T18:27:02.630Z,82.19
2023-04-25T18:29:33.688Z,82.76
2023-04-25T18:32:05.723Z,82.66
2023-04-25T18:34:35.915Z,82.12
2023-04-25T18:37:06.036Z,82.87
2023-04-25T18:39:36.170Z,84.47
2023-04-25T18:42:10.208Z,84.39
2023-04-25T18:44:41.150Z,87.58
2023-04-25T18:47:13.173Z,85.48
2023-04-25T18:49:43.877Z,86.10
2023-04-25T18:52:16.174Z,87.22
2023-04-25T18:54:46.298Z,87.92
2023-04-25T18:57:17.895Z,87.52
2023-04-25T18:59:48.111Z,88.69
2023-04-25T19:02:18.477Z,90.73
2023-04-25T19:04:48.814Z,93.47
2023-04-25T19:07:21.041Z,96.69
2023-04-25T19:09:51.606Z,94.24
2023-04-25T19:12:22.069Z,91.82
2023-04-25T19:14:51.118Z,90.98
2023-04-25T19:17:18.566Z,87.95
2023-04-25T19:19:46.995Z,85.39
2023-04-25T19:22:15.528Z,86.64
2023-04-25T19:24:43.813Z,87.03
2023-04-25T19:27:12.270Z,87.24
2023-04-25T19:29:44.464Z,87.46
2023-04-25T19:32:12.898Z,88.51
2023-04-25T19:34:41.577Z,88.99
2023-04-25T19:37:09.423Z,89.95
2023-04-25T19:39:37.364Z,90.09
2023-04-25T19:42:08.115Z,90.14
2023-04-25T19:44:39.975Z,90.51
2023-04-25T19:47:11.376Z,89.84
2023-04-25T19:49:41.516Z,90.28
2023-04-25T19:52:15.158Z,90.82
2023-04-25T19:54:45.734Z,91.59
2023-04-25T19:57:15.887Z,92.68
2023-04-25T19:59:48.283Z,91.73
2023-04-25T20:02:18.541Z,92.89
2023-04-25T20:04:49.770Z,92.88
2023-04-25T20:07:20.139Z,93.04
2023-04-25T20:09:48.888Z,93.38
2023-04-25T20:12:18.238Z,93.96
2023-04-25T20:14:45.386Z,93.58
2023-04-25T20:17:14.001Z,94.60
2023-04-25T20:19:42.373Z,95.23
2023-04-25T20:22:11.011Z,96.15
2023-04-25T20:24:40.057Z,98.12
2023-04-25T20:27:07.873Z,99.11
2023-04-25T20:29:36.235Z,100.00
2023-04-25T20:32:05.287Z,100.00
2023-04-25T20:34:33.126Z,100.00
2023-04-25T20:37:03.042Z,100.00
2023-04-25T20:39:33.469Z,100.00
2023-04-25T20:42:03.639Z,100.00
2023-04-25T20:44:33.853Z,100.00
2023-04-25T20:47:04.812Z,100.00
2023-04-25T20:49:36.578Z,100.00
2023-04-25T20:52:07.921Z,100.00
2023-04-25T20:54:38.416Z,100.00
2023-04-25T20:57:08.584Z,100.00
2023-04-25T20:59:38.799Z,100.00
2023-04-25T21:02:15.816Z,100.00
2023-04-25T21:04:46.672Z,100.00
2023-04-25T21:07:16.922Z,100.00
2023-04-25T21:09:48.089Z,100.00
2023-04-25T21:12:18.200Z,100.00
2023-04-25T21:14:48.326Z,100.00
2023-04-25T21:17:18.658Z,100.00
2023-04-25T21:19:48.894Z,100.00
2023-04-25T21:22:19.320Z,100.00
2023-04-25T21:24:50.909Z,100.00
2023-04-25T21:27:21.196Z,100.00
2023-04-25T21:29:51.315Z,100.00
2023-04-25T21:32:22.037Z,100.00
2023-04-25T21:34:50.004Z,100.00
2023-04-25T21:37:18.346Z,100.00
2023-04-25T21:39:48.106Z,100.00
2023-04-25T21:42:18.418Z,100.00
2023-04-25T21:44:46.632Z,100.00
2023-04-25T21:47:15.169Z,100.00
2023-04-25T21:49:43.458Z,100.00
2023-04-25T21:52:12.516Z,100.00
2023-04-25T21:54:40.921Z,100.00
2023-04-25T21:57:08.997Z,100.00
2023-04-25T21:59:37.579Z,100.00
2023-04-25T22:02:06.093Z,100.00
2023-04-25T22:04:35.130Z,100.00
2023-04-25T22:07:02.943Z,100.00
2023-04-25T22:09:34.632Z,100.00
2023-04-25T22:12:11.601Z,100.00
2023-04-25T22:14:41.993Z,100.00
2023-04-25T22:17:12.284Z,100.00
2023-04-25T22:19:43.364Z,100.00
2023-04-25T22:22:13.488Z,100.00
2023-04-25T22:24:43.671Z,100.00
2023-04-25T22:27:13.941Z,100.00
2023-04-25T22:29:44.062Z,100.00
2023-04-25T22:32:14.528Z,100.00
2023-04-25T22:34:45.786Z,100.00
2023-04-25T22:37:15.901Z,100.00
2023-04-25T22:39:46.107Z,100.00
2023-04-25T22:42:16.650Z,100.00
2023-04-25T22:44:47.195Z,100.00
2023-04-25T22:47:17.452Z,100.00
2023-04-25T22:49:47.589Z,100.00
2023-04-25T22:52:17.879Z,100.00
2023-04-25T22:54:47.976Z,100.00
2023-04-25T22:57:18.264Z,100.00
2023-04-25T22:59:48.382Z,100.00
2023-04-25T23:02:18.604Z,100.00
2023-04-25T23:04:47.016Z,100.00
2023-04-25T23:07:16.093Z,100.00
2023-04-25T23:09:45.288Z,100.00
2023-04-25T23:12:21.959Z,100.00
2023-04-25T23:14:52.857Z,100.00
2023-04-25T23:17:23.172Z,100.00
2023-04-25T23:19:53.318Z,100.00
2023-04-25T23:22:23.637Z,100.00
2023-04-25T23:24:53.770Z,100.00
2023-04-25T23:27:23.900Z,100.00
2023-04-25T23:29:56.248Z,100.00
2023-04-25T23:32:27.157Z,100.00
2023-04-25T23:34:57.776Z,100.00
2023-04-25T23:37:28.031Z,100.00
2023-04-25T23:39:56.357Z,100.00
2023-04-25T23:42:25.023Z,100.00
2023-04-25T23:44:53.427Z,100.00
2023-04-25T23:47:21.916Z,100.00
2023-04-25T23:49:50.242Z,100.00
2023-04-25T23:52:18.834Z,100.00
2023-04-25T23:54:47.140Z,100.00
2023-04-25T23:57:16.965Z,100.00
2023-04-25T23:59:47.184Z,100.00
